createdAt,value
2022-08-11T00:00:53.492Z,24.53
2022-08-11T00:01:56.434Z,24.53
2022-08-11T00:03:05.614Z,24.49
2022-08-11T00:04:07.958Z,24.49
2022-08-11T00:05:15.721Z,24.51
2022-08-11T00:06:35.306Z,24.53
2022-08-11T00:07:49.357Z,24.52
2022-08-11T00:08:51.900Z,24.51
2022-08-11T00:09:54.654Z,24.52
2022-08-11T00:11:03.822Z,24.51
2022-08-11T00:12:13.805Z,24.51
2022-08-11T00:13:16.962Z,24.43
2022-08-11T00:14:21.548Z,24.51
2022-08-11T00:15:24.702Z,24.49
2022-08-11T00:16:27.941Z,24.27
2022-08-11T00:17:32.919Z,24.49
2022-08-11T00:18:41.222Z,24.40
2022-08-11T00:20:12.751Z,24.45
2022-08-11T00:21:11.736Z,24.45
2022-08-11T00:22:21.122Z,24.37
2022-08-11T00:23:23.275Z,24.39
2022-08-11T00:24:25.647Z,24.39
2022-08-11T00:25:27.591Z,24.30
2022-08-11T00:26:30.397Z,24.38
2022-08-11T00:27:36.685Z,24.39
2022-08-11T00:28:38.674Z,24.38
2022-08-11T00:29:51.668Z,24.36
2022-08-11T00:30:55.675Z,24.34
2022-08-11T00:32:01.883Z,24.33
2022-08-11T00:33:04.391Z,24.31
2022-08-11T00:34:11.324Z,24.28
2022-08-11T00:35:54.533Z,24.28
2022-08-11T00:36:42.661Z,24.26
2022-08-11T00:37:50.610Z,24.25
2022-08-11T00:38:54.004Z,24.22
2022-08-11T00:39:56.967Z,24.20
2022-08-11T00:41:26.295Z,24.16
2022-08-11T00:42:46.350Z,24.13
2022-08-11T00:43:55.315Z,24.09
2022-08-11T00:45:32.622Z,24.06
2022-08-11T00:46:51.226Z,24.06
2022-08-11T00:48:27.735Z,24.03
2022-08-11T00:50:01.131Z,23.98
2022-08-11T00:51:20.686Z,23.93
2022-08-11T00:52:53.126Z,23.91
2022-08-11T00:54:08.977Z,23.91
2022-08-11T00:55:41.626Z,23.87
2022-08-11T00:57:38.833Z,23.77
2022-08-11T00:59:34.196Z,23.71
2022-08-11T01:00:45.719Z,23.58
2022-08-11T01:01:58.942Z,23.52
2022-08-11T01:03:17.964Z,23.49
2022-08-11T01:04:38.130Z,23.39
2022-08-11T01:05:45.814Z,23.38
2022-08-11T01:06:50.227Z,23.38
2022-08-11T01:08:25.408Z,23.36
2022-08-11T01:09:45.041Z,23.33
2022-08-11T01:11:10.809Z,23.31
2022-08-11T01:12:40.033Z,23.32
2022-08-11T01:13:47.626Z,23.30
2022-08-11T01:15:04.379Z,23.29
2022-08-11T01:16:25.014Z,23.27
2022-08-11T01:17:26.539Z,23.28
2022-08-11T01:18:40.006Z,23.29
2022-08-11T01:20:48.602Z,23.27
2022-08-11T01:22:19.410Z,23.25
2022-08-11T01:23:58.459Z,23.22
2022-08-11T01:25:26.783Z,23.19
2022-08-11T01:27:05.646Z,23.15
2022-08-11T01:28:55.201Z,23.13
2022-08-11T01:30:34.363Z,23.11
2022-08-11T01:31:57.484Z,23.08
2022-08-11T01:33:04.963Z,23.07
2022-08-11T01:34:27.550Z,23.10
2022-08-11T01:35:59.271Z,22.99
2022-08-11T01:37:25.097Z,23.11
2022-08-11T01:38:52.479Z,23.09
2022-08-11T01:40:08.932Z,23.09
2022-08-11T01:42:06.784Z,23.08
2022-08-11T01:44:17.616Z,23.05
2022-08-11T01:45:48.889Z,23.03
2022-08-11T01:46:57.221Z,23.04
2022-08-11T01:48:20.925Z,23.01
2022-08-11T01:50:07.304Z,23.03
2022-08-11T01:51:30.224Z,23.02
2022-08-11T01:52:49.184Z,23.06
2022-08-11T01:53:59.514Z,23.07
2022-08-11T01:55:18.311Z,23.09
2022-08-11T01:56:34.882Z,23.10
2022-08-11T01:57:44.572Z,23.11
2022-08-11T01:58:55.797Z,23.12
2022-08-11T02:00:08.643Z,23.10
2022-08-11T02:01:34.855Z,23.12
2022-08-11T02:02:54.174Z,23.12
2022-08-11T02:04:13.845Z,23.11
2022-08-11T02:05:38.511Z,23.10
2022-08-11T02:07:15.239Z,23.09
2022-08-11T02:08:54.366Z,23.09
2022-08-11T02:10:36.583Z,23.07
2022-08-11T02:11:41.062Z,23.07
2022-08-11T02:12:53.199Z,23.05
2022-08-11T02:14:12.199Z,23.09
2022-08-11T02:15:36.585Z,23.07
2022-08-11T02:16:49.127Z,23.09
2022-08-11T02:18:04.055Z,23.11
2022-08-11T02:20:01.472Z,23.09
2022-08-11T02:21:32.543Z,23.11
2022-08-11T02:23:05.354Z,23.10
2022-08-11T02:24:19.583Z,23.10
2022-08-11T02:25:35.288Z,23.11
2022-08-11T02:27:01.082Z,23.12
2022-08-11T02:28:13.039Z,23.00
2022-08-11T02:29:49.797Z,23.12
2022-08-11T02:32:24.753Z,23.12
2022-08-11T02:33:24.703Z,23.09
2022-08-11T02:34:59.883Z,23.09
2022-08-11T02:36:19.770Z,23.06
2022-08-11T02:37:35.388Z,23.14
2022-08-11T02:39:12.151Z,22.94
2022-08-11T02:40:38.592Z,23.14
2022-08-11T02:42:42.471Z,23.17
2022-08-11T02:43:59.529Z,23.18
2022-08-11T02:45:18.651Z,23.17
2022-08-11T02:46:45.201Z,23.18
2022-08-11T02:48:43.271Z,23.18
2022-08-11T02:50:12.546Z,23.25
2022-08-11T02:51:22.045Z,23.24
2022-08-11T02:52:36.244Z,23.25
2022-08-11T02:53:58.018Z,23.22
2022-08-11T02:55:56.285Z,23.26
2022-08-11T02:57:04.075Z,23.28
2022-08-11T02:58:36.741Z,23.27
2022-08-11T02:59:55.396Z,23.26
2022-08-11T03:01:22.016Z,23.26
2022-08-11T03:02:32.332Z,23.23
2022-08-11T03:03:44.542Z,23.24
2022-08-11T03:04:50.016Z,23.27
2022-08-11T03:06:01.364Z,23.20
2022-08-11T03:07:28.774Z,23.23
2022-08-11T03:09:16.110Z,23.22
2022-08-11T03:10:23.722Z,23.23
2022-08-11T03:11:53.155Z,23.23
2022-08-11T03:13:27.143Z,23.21
2022-08-11T03:14:54.698Z,23.23
2022-08-11T03:16:38.890Z,23.24
2022-08-11T03:18:03.211Z,23.26
2022-08-11T03:19:42.220Z,23.26
2022-08-11T03:20:57.849Z,23.26
2022-08-11T03:22:10.042Z,23.26
2022-08-11T03:23:33.843Z,23.23
2022-08-11T03:24:54.068Z,23.13
2022-08-11T03:26:23.215Z,23.12
2022-08-11T03:27:30.620Z,23.06
2022-08-11T03:28:54.069Z,23.04
2022-08-11T03:30:13.755Z,23.06
2022-08-11T03:31:34.681Z,23.06
2022-08-11T03:33:12.391Z,23.05
2022-08-11T03:34:18.557Z,22.99
2022-08-11T03:35:21.338Z,22.98
2022-08-11T03:37:01.717Z,22.96
2022-08-11T03:38:16.943Z,22.94
2022-08-11T03:39:56.601Z,22.92
2022-08-11T03:42:03.477Z,22.96
2022-08-11T03:43:26.981Z,23.00
2022-08-11T03:44:28.631Z,23.04
2022-08-11T03:45:56.567Z,23.04
2022-08-11T03:47:22.720Z,23.06
2022-08-11T03:49:01.387Z,23.03
2022-08-11T03:50:27.661Z,22.88
2022-08-11T03:51:51.495Z,22.92
2022-08-11T03:53:01.742Z,22.96
2022-08-11T03:54:22.256Z,22.94
2022-08-11T03:56:00.831Z,22.97
2022-08-11T03:57:21.214Z,22.98
2022-08-11T03:58:32.207Z,22.98
2022-08-11T04:00:04.034Z,22.95
2022-08-11T04:01:18.131Z,22.95
2022-08-11T04:02:43.943Z,22.99
2022-08-11T04:03:51.421Z,23.01
2022-08-11T04:05:34.344Z,23.05
2022-08-11T04:07:03.930Z,23.14
2022-08-11T04:08:49.294Z,23.21
2022-08-11T04:10:15.512Z,23.26
2022-08-11T04:11:51.451Z,23.27
2022-08-11T04:13:10.325Z,23.36
2022-08-11T04:14:54.916Z,23.41
2022-08-11T04:16:12.185Z,23.28
2022-08-11T04:17:45.518Z,23.32
2022-08-11T04:19:09.887Z,23.38
2022-08-11T04:20:14.455Z,23.38
2022-08-11T04:21:53.746Z,23.40
2022-08-11T04:24:37.181Z,23.48
2022-08-11T04:25:51.139Z,23.55
2022-08-11T04:27:36.977Z,23.59
2022-08-11T04:29:08.026Z,23.62
2022-08-11T04:30:20.226Z,23.70
2022-08-11T04:31:50.518Z,23.68
2022-08-11T04:33:00.023Z,23.63
2022-08-11T04:34:35.836Z,23.70
2022-08-11T04:36:10.425Z,23.69
2022-08-11T04:37:34.820Z,23.64
2022-08-11T04:38:58.833Z,23.41
2022-08-11T04:40:00.922Z,23.52
2022-08-11T04:42:00.150Z,23.43
2022-08-11T04:43:23.242Z,23.25
2022-08-11T04:44:39.919Z,23.12
2022-08-11T04:46:00.422Z,23.18
2022-08-11T04:47:07.928Z,23.29
2022-08-11T04:48:49.798Z,23.46
2022-08-11T04:50:31.880Z,23.31
2022-08-11T04:52:15.489Z,23.20
2022-08-11T04:53:53.677Z,23.20
2022-08-11T04:55:32.500Z,23.18
2022-08-11T04:56:59.573Z,23.25
2022-08-11T04:58:31.341Z,23.45
2022-08-11T05:00:19.838Z,23.65
2022-08-11T05:01:42.675Z,23.81
2022-08-11T05:03:22.525Z,23.86
2022-08-11T05:05:07.941Z,24.01
2022-08-11T05:06:38.256Z,24.00
2022-08-11T05:07:57.995Z,24.18
2022-08-11T05:09:21.962Z,24.41
2022-08-11T05:10:58.212Z,24.60
2022-08-11T05:12:16.281Z,24.70
2022-08-11T05:13:50.762Z,24.94
2022-08-11T05:15:25.919Z,25.10
2022-08-11T05:17:01.490Z,25.28
2022-08-11T05:18:33.162Z,25.60
2022-08-11T05:19:55.165Z,25.86
2022-08-11T05:21:21.858Z,25.98
2022-08-11T05:22:48.394Z,25.98
2022-08-11T05:24:31.448Z,26.04
2022-08-11T05:26:09.377Z,26.35
2022-08-11T05:27:35.438Z,26.36
2022-08-11T05:29:24.277Z,26.52
2022-08-11T05:30:47.626Z,26.69
2022-08-11T05:32:17.804Z,26.69
2022-08-11T05:33:42.479Z,26.79
2022-08-11T05:34:54.573Z,26.89
2022-08-11T05:36:32.108Z,27.00
2022-08-11T05:37:53.305Z,27.05
2022-08-11T05:39:16.026Z,27.10
2022-08-11T05:40:36.773Z,27.04
2022-08-11T05:41:57.914Z,27.16
2022-08-11T05:43:22.061Z,27.21
2022-08-11T05:44:43.083Z,27.24
2022-08-11T05:46:14.569Z,27.25
2022-08-11T05:47:45.280Z,27.25
2022-08-11T05:49:07.362Z,27.27
2022-08-11T05:50:33.101Z,27.25
2022-08-11T05:52:05.759Z,27.31
2022-08-11T05:53:37.482Z,27.29
2022-08-11T05:55:07.428Z,27.26
2022-08-11T05:56:19.648Z,27.13
2022-08-11T05:57:48.807Z,26.96
2022-08-11T05:58:50.080Z,26.93
2022-08-11T06:00:00.894Z,26.81
2022-08-11T06:01:03.186Z,26.73
2022-08-11T06:02:08.666Z,26.70
2022-08-11T06:03:11.110Z,26.69
2022-08-11T06:04:18.171Z,26.69
2022-08-11T06:05:20.158Z,26.68
2022-08-11T06:06:22.588Z,26.67
2022-08-11T06:07:49.254Z,26.64
2022-08-11T06:08:57.050Z,26.65
2022-08-11T06:10:00.046Z,26.65
2022-08-11T06:11:05.230Z,26.61
2022-08-11T06:12:19.130Z,26.59
2022-08-11T06:13:23.787Z,26.54
2022-08-11T06:14:26.651Z,26.53
2022-08-11T06:15:31.286Z,26.46
2022-08-11T06:16:33.489Z,26.48
2022-08-11T06:17:45.749Z,26.46
2022-08-11T06:18:48.822Z,26.46
2022-08-11T06:19:53.106Z,26.41
2022-08-11T06:20:57.760Z,26.35
2022-08-11T06:22:01.658Z,26.18
2022-08-11T06:23:06.919Z,26.19
2022-08-11T06:24:13.964Z,26.10
2022-08-11T06:25:17.115Z,26.20
2022-08-11T06:26:20.609Z,26.19
2022-08-11T06:27:24.978Z,26.15
2022-08-11T06:28:36.333Z,26.15
2022-08-11T06:29:48.018Z,26.19
2022-08-11T06:30:56.500Z,26.12
2022-08-11T06:32:02.802Z,26.24
2022-08-11T06:33:08.724Z,26.20
2022-08-11T06:34:26.778Z,26.26
2022-08-11T06:35:45.835Z,26.08
2022-08-11T06:36:58.265Z,25.96
2022-08-11T06:38:16.299Z,25.91
2022-08-11T06:39:45.541Z,25.92
2022-08-11T06:41:12.269Z,25.91
2022-08-11T06:42:37.174Z,26.00
2022-08-11T06:43:56.102Z,26.61
2022-08-11T06:45:05.291Z,26.67
2022-08-11T06:46:10.185Z,26.86
2022-08-11T06:47:15.823Z,26.99
2022-08-11T06:48:21.579Z,27.02
2022-08-11T06:49:52.754Z,27.43
2022-08-11T06:51:14.123Z,28.18
2022-08-11T06:52:34.512Z,28.60
2022-08-11T06:53:56.195Z,28.96
2022-08-11T06:55:56.787Z,29.23
2022-08-11T06:57:30.227Z,29.54
2022-08-11T06:58:57.607Z,29.36
2022-08-11T07:00:20.249Z,29.04
2022-08-11T07:01:50.842Z,28.96
2022-08-11T07:02:54.820Z,28.97
2022-08-11T07:04:06.644Z,28.84
2022-08-11T07:05:21.215Z,28.88
2022-08-11T07:06:50.459Z,28.98
2022-08-11T07:08:34.175Z,28.97
2022-08-11T07:10:32.591Z,29.41
2022-08-11T07:12:30.302Z,29.60
2022-08-11T07:14:04.509Z,29.78
2022-08-11T07:16:11.761Z,29.72
2022-08-11T07:17:47.234Z,29.36
2022-08-11T07:19:09.407Z,29.67
2022-08-11T07:20:31.917Z,29.96
2022-08-11T07:22:02.244Z,30.50
2022-08-11T07:23:28.380Z,31.04
2022-08-11T07:24:59.101Z,31.71
2022-08-11T07:26:23.609Z,31.87
2022-08-11T07:27:50.044Z,32.10
2022-08-11T07:29:01.535Z,32.05
2022-08-11T07:30:07.118Z,32.22
2022-08-11T07:31:14.838Z,32.03
2022-08-11T07:32:24.407Z,32.34
2022-08-11T07:34:06.437Z,32.08
2022-08-11T07:35:15.933Z,32.04
2022-08-11T07:36:18.547Z,32.61
2022-08-11T07:37:21.632Z,32.85
2022-08-11T07:38:47.233Z,33.12
2022-08-11T07:39:50.465Z,33.44
2022-08-11T07:40:52.861Z,33.88
2022-08-11T07:41:57.844Z,34.11
2022-08-11T07:43:01.003Z,34.27
2022-08-11T07:44:20.965Z,34.44
2022-08-11T07:45:48.455Z,35.01
2022-08-11T07:47:09.625Z,35.78
2022-08-11T07:48:31.423Z,35.95
2022-08-11T07:49:55.441Z,36.34
2022-08-11T07:51:17.444Z,36.64
2022-08-11T07:52:33.832Z,37.10
2022-08-11T07:53:41.910Z,37.34
2022-08-11T07:55:06.040Z,37.61
2022-08-11T07:56:11.210Z,37.64
2022-08-11T07:57:56.272Z,37.70
2022-08-11T07:59:18.399Z,37.99
2022-08-11T08:00:42.501Z,38.14
2022-08-11T08:02:02.741Z,38.16
2022-08-11T08:03:25.120Z,38.18
2022-08-11T08:04:47.457Z,38.18
2022-08-11T08:06:15.252Z,38.19
2022-08-11T08:07:50.190Z,38.09
2022-08-11T08:09:11.308Z,38.39
2022-08-11T08:10:31.286Z,38.23
2022-08-11T08:11:51.747Z,37.91
2022-08-11T08:13:13.756Z,37.72
2022-08-11T08:14:36.308Z,37.77
2022-08-11T08:15:56.815Z,37.63
2022-08-11T08:17:17.880Z,37.42
2022-08-11T08:18:27.615Z,37.84
2022-08-11T08:19:30.251Z,38.02
2022-08-11T08:20:38.118Z,37.94
2022-08-11T08:21:40.199Z,38.08
2022-08-11T08:22:56.440Z,38.43
2022-08-11T08:23:58.824Z,38.82
2022-08-11T08:25:00.925Z,39.13
2022-08-11T08:26:05.817Z,39.38
2022-08-11T08:27:21.443Z,39.59
2022-08-11T08:28:23.621Z,39.59
2022-08-11T08:29:55.545Z,39.55
2022-08-11T08:30:58.599Z,39.22
2022-08-11T08:32:02.918Z,39.00
2022-08-11T08:33:05.879Z,39.01
2022-08-11T08:34:08.253Z,38.98
2022-08-11T08:35:13.612Z,39.02
2022-08-11T08:36:16.437Z,38.82
2022-08-11T08:37:46.241Z,38.45
2022-08-11T08:38:47.141Z,38.40
2022-08-11T08:39:49.009Z,38.27
2022-08-11T08:40:55.920Z,38.25
2022-08-11T08:41:59.790Z,38.09
2022-08-11T08:43:10.286Z,38.43
2022-08-11T08:44:37.291Z,38.76
2022-08-11T08:45:39.957Z,39.01
2022-08-11T08:46:45.788Z,39.14
2022-08-11T08:48:02.050Z,39.42
2022-08-11T08:49:04.795Z,39.39
2022-08-11T08:50:16.488Z,39.48
2022-08-11T08:52:01.492Z,39.33
2022-08-11T08:53:05.906Z,39.72
2022-08-11T08:54:12.861Z,39.87
2022-08-11T08:55:18.935Z,40.07
2022-08-11T08:56:28.604Z,40.06
2022-08-11T08:57:39.098Z,40.03
2022-08-11T08:58:43.181Z,40.12
2022-08-11T08:59:49.491Z,40.33
2022-08-11T09:00:54.929Z,40.60
2022-08-11T09:02:05.043Z,40.62
2022-08-11T09:03:29.544Z,40.55
2022-08-11T09:04:31.162Z,40.42
2022-08-11T09:05:33.084Z,40.43
2022-08-11T09:06:39.985Z,40.34
2022-08-11T09:07:43.453Z,40.36
2022-08-11T09:08:46.749Z,40.48
2022-08-11T09:09:57.089Z,40.60
2022-08-11T09:11:19.159Z,40.74
2022-08-11T09:12:36.425Z,40.82
2022-08-11T09:13:44.636Z,40.89
2022-08-11T09:15:03.657Z,40.98
2022-08-11T09:16:06.837Z,40.73
2022-08-11T09:17:08.611Z,40.59
2022-08-11T09:18:12.251Z,40.49
2022-08-11T09:19:19.068Z,40.53
2022-08-11T09:20:24.839Z,40.60
2022-08-11T09:21:46.261Z,40.59
2022-08-11T09:24:50.294Z,40.54
2022-08-11T09:26:19.532Z,40.27
2022-08-11T09:27:22.845Z,40.09
2022-08-11T09:28:25.070Z,40.10
2022-08-11T09:29:29.125Z,40.02
2022-08-11T09:30:31.929Z,40.12
2022-08-11T09:31:39.007Z,40.36
2022-08-11T09:32:42.868Z,40.53
2022-08-11T09:33:45.985Z,40.43
2022-08-11T09:34:52.535Z,40.52
2022-08-11T09:35:57.459Z,40.54
2022-08-11T09:37:28.739Z,40.58
2022-08-11T09:39:00.085Z,40.60
2022-08-11T09:40:21.652Z,40.79
2022-08-11T09:41:29.354Z,40.85
2022-08-11T09:43:10.360Z,41.03
2022-08-11T09:44:31.358Z,41.09
2022-08-11T09:45:40.012Z,41.11
2022-08-11T09:46:42.315Z,41.23
2022-08-11T09:47:45.092Z,41.45
2022-08-11T09:48:47.662Z,41.61
2022-08-11T09:49:52.803Z,41.75
2022-08-11T09:50:56.969Z,41.87
2022-08-11T09:52:04.878Z,41.91
2022-08-11T09:53:35.080Z,41.77
2022-08-11T09:54:29.082Z,42.02
2022-08-11T09:55:30.820Z,42.08
2022-08-11T09:56:52.047Z,41.74
2022-08-11T09:58:12.597Z,41.80
2022-08-11T09:59:37.045Z,41.62
2022-08-11T10:00:40.427Z,41.12
2022-08-11T10:01:53.240Z,40.47
2022-08-11T10:02:56.865Z,40.27
2022-08-11T10:04:08.064Z,40.44
2022-08-11T10:05:29.178Z,40.39
2022-08-11T10:06:54.308Z,40.17
2022-08-11T10:07:57.366Z,40.52
2022-08-11T10:08:59.375Z,40.60
2022-08-11T10:10:05.907Z,40.47
2022-08-11T10:11:11.453Z,40.36
2022-08-11T10:12:29.773Z,40.37
2022-08-11T10:14:30.184Z,40.38
2022-08-11T10:15:20.816Z,40.26
2022-08-11T10:16:26.569Z,39.97
2022-08-11T10:17:34.157Z,39.58
2022-08-11T10:18:49.671Z,39.54
2022-08-11T10:20:04.804Z,39.21
2022-08-11T10:21:20.006Z,39.14
2022-08-11T10:22:40.458Z,39.02
2022-08-11T10:24:05.382Z,39.13
2022-08-11T10:25:27.045Z,38.91
2022-08-11T10:27:06.310Z,39.25
2022-08-11T10:28:30.343Z,39.59
2022-08-11T10:29:55.055Z,39.69
2022-08-11T10:31:16.774Z,40.01
2022-08-11T10:32:57.381Z,39.82
2022-08-11T10:34:03.610Z,39.49
2022-08-11T10:35:09.202Z,39.74
2022-08-11T10:36:16.296Z,40.04
2022-08-11T10:37:22.582Z,40.29
2022-08-11T10:38:25.781Z,40.42
2022-08-11T10:39:27.893Z,40.61
2022-08-11T10:40:30.385Z,40.62
2022-08-11T10:42:06.089Z,40.85
2022-08-11T10:43:17.671Z,40.78
2022-08-11T10:44:42.584Z,40.61
2022-08-11T10:46:04.886Z,40.59
2022-08-11T10:47:26.828Z,40.46
2022-08-11T10:48:30.741Z,40.34
2022-08-11T10:49:33.534Z,40.01
2022-08-11T10:50:53.859Z,39.43
2022-08-11T10:52:15.245Z,38.25
2022-08-11T10:53:38.695Z,38.18
2022-08-11T10:55:01.244Z,38.44
2022-08-11T10:56:25.414Z,38.76
2022-08-11T10:58:04.655Z,38.96
2022-08-11T10:59:11.217Z,39.11
2022-08-11T11:00:15.400Z,39.17
2022-08-11T11:01:23.946Z,39.18
2022-08-11T11:02:30.078Z,39.14
2022-08-11T11:03:35.803Z,39.11
2022-08-11T11:04:57.121Z,39.03
2022-08-11T11:06:27.319Z,39.24
2022-08-11T11:07:40.990Z,39.24
2022-08-11T11:08:57.538Z,39.27
2022-08-11T11:10:07.194Z,39.08
2022-08-11T11:11:10.182Z,38.68
2022-08-11T11:12:54.222Z,38.34
2022-08-11T11:14:14.888Z,38.07
2022-08-11T11:15:38.043Z,37.81
2022-08-11T11:16:50.410Z,37.89
2022-08-11T11:18:06.438Z,37.50
2022-08-11T11:19:11.233Z,37.40
2022-08-11T11:20:37.421Z,37.57
2022-08-11T11:21:43.022Z,37.52
2022-08-11T11:22:52.521Z,37.63
2022-08-11T11:24:34.265Z,37.34
2022-08-11T11:26:06.824Z,36.97
2022-08-11T11:27:20.671Z,36.67
2022-08-11T11:28:32.784Z,36.16
2022-08-11T11:30:03.256Z,36.20
2022-08-11T11:31:38.355Z,36.31
2022-08-11T11:33:11.473Z,36.41
2022-08-11T11:34:53.097Z,36.62
2022-08-11T11:36:23.365Z,36.97
2022-08-11T11:37:25.784Z,37.31
2022-08-11T11:38:28.997Z,37.65
2022-08-11T11:39:32.596Z,37.86
2022-08-11T11:40:35.026Z,37.80
2022-08-11T11:41:37.159Z,37.80
2022-08-11T11:42:41.711Z,37.86
2022-08-11T11:43:45.719Z,37.95
2022-08-11T11:44:48.410Z,37.92
2022-08-11T11:45:50.256Z,38.01
2022-08-11T11:46:53.122Z,37.99
2022-08-11T11:47:56.381Z,37.97
2022-08-11T11:49:00.600Z,37.88
2022-08-11T11:50:03.009Z,37.96
2022-08-11T11:51:05.303Z,38.09
2022-08-11T11:52:09.174Z,38.15
2022-08-11T11:53:12.698Z,38.22
2022-08-11T11:54:16.036Z,38.20
2022-08-11T11:55:18.507Z,38.31
2022-08-11T11:56:24.812Z,38.16
2022-08-11T11:57:58.545Z,38.07
2022-08-11T11:59:21.289Z,38.29
2022-08-11T12:00:43.548Z,38.25
2022-08-11T12:01:47.081Z,38.21
2022-08-11T12:02:53.098Z,38.26
2022-08-11T12:03:56.609Z,38.26
2022-08-11T12:04:58.620Z,38.39
2022-08-11T12:06:01.215Z,38.52
2022-08-11T12:07:21.987Z,38.31
2022-08-11T12:08:27.600Z,38.27
2022-08-11T12:09:29.702Z,37.72
2022-08-11T12:10:32.493Z,37.67
2022-08-11T12:11:52.931Z,37.89
2022-08-11T12:13:13.981Z,37.86
2022-08-11T12:14:21.339Z,38.00
2022-08-11T12:16:03.667Z,37.92
2022-08-11T12:16:48.291Z,37.89
2022-08-11T12:17:52.819Z,37.51
2022-08-11T12:18:59.992Z,37.41
2022-08-11T12:20:03.804Z,37.47
2022-08-11T12:21:07.594Z,37.13
2022-08-11T12:22:29.043Z,36.74
2022-08-11T12:23:53.079Z,36.68
2022-08-11T12:26:10.028Z,36.33
2022-08-11T12:27:25.094Z,36.23
2022-08-11T12:28:29.098Z,36.17
2022-08-11T12:29:32.208Z,36.35
2022-08-11T12:30:34.097Z,36.44
2022-08-11T12:31:38.269Z,36.59
2022-08-11T12:32:41.326Z,36.62
2022-08-11T12:33:44.038Z,36.68
2022-08-11T12:34:45.915Z,36.84
2022-08-11T12:36:00.479Z,37.10
2022-08-11T12:37:07.037Z,36.93
2022-08-11T12:38:12.583Z,37.13
2022-08-11T12:39:24.259Z,37.26
2022-08-11T12:41:18.062Z,37.49
2022-08-11T12:42:39.031Z,37.65
2022-08-11T12:44:04.640Z,37.88
2022-08-11T12:45:27.829Z,37.85
2022-08-11T12:46:33.157Z,37.84
2022-08-11T12:48:40.159Z,37.57
2022-08-11T12:49:43.352Z,37.36
2022-08-11T12:51:10.893Z,37.29
2022-08-11T12:52:21.517Z,37.39
2022-08-11T12:53:27.608Z,37.50
2022-08-11T12:54:35.231Z,37.47
2022-08-11T12:56:03.359Z,37.55
2022-08-11T12:57:39.907Z,37.76
2022-08-11T12:58:43.177Z,38.11
2022-08-11T13:00:04.663Z,38.21
2022-08-11T13:01:25.577Z,38.08
2022-08-11T13:02:47.165Z,38.00
2022-08-11T13:04:07.379Z,38.16
2022-08-11T13:05:13.282Z,38.29
2022-08-11T13:06:16.619Z,38.34
2022-08-11T13:07:18.798Z,38.26
2022-08-11T13:08:23.525Z,38.32
2022-08-11T13:09:25.278Z,38.35
2022-08-11T13:10:47.047Z,38.31
2022-08-11T13:12:07.462Z,38.32
2022-08-11T13:13:54.300Z,38.12
2022-08-11T13:14:33.697Z,38.06
2022-08-11T13:15:39.042Z,37.89
2022-08-11T13:17:00.052Z,37.84
2022-08-11T13:18:03.278Z,37.75
2022-08-11T13:19:05.241Z,37.68
2022-08-11T13:20:10.297Z,37.59
2022-08-11T13:21:20.077Z,37.30
2022-08-11T13:22:24.503Z,37.28
2022-08-11T13:23:27.532Z,37.43
2022-08-11T13:24:30.183Z,37.46
2022-08-11T13:25:32.977Z,37.48
2022-08-11T13:26:48.292Z,37.56
2022-08-11T13:27:55.968Z,37.67
2022-08-11T13:29:02.750Z,37.54
2022-08-11T13:30:24.101Z,37.67
2022-08-11T13:31:25.996Z,37.67
2022-08-11T13:32:28.440Z,37.72
2022-08-11T13:33:31.857Z,37.80
2022-08-11T13:34:36.213Z,37.73
2022-08-11T13:35:39.212Z,37.57
2022-08-11T13:36:41.721Z,37.66
2022-08-11T13:38:19.080Z,37.83
2022-08-11T13:39:10.662Z,37.73
2022-08-11T13:40:17.737Z,37.74
2022-08-11T13:41:39.391Z,37.60
2022-08-11T13:42:42.124Z,37.22
2022-08-11T13:43:45.343Z,37.38
2022-08-11T13:44:48.080Z,37.08
2022-08-11T13:45:53.095Z,36.83
2022-08-11T13:46:59.331Z,36.88
2022-08-11T13:48:03.586Z,37.01
2022-08-11T13:49:09.184Z,36.75
2022-08-11T13:50:13.670Z,36.76
2022-08-11T13:51:34.800Z,36.95
2022-08-11T13:52:39.408Z,37.07
2022-08-11T13:53:43.777Z,37.00
2022-08-11T13:54:49.815Z,36.77
2022-08-11T13:55:52.678Z,36.89
2022-08-11T13:56:57.042Z,36.83
2022-08-11T13:58:08.755Z,36.92
2022-08-11T13:59:29.667Z,36.96
2022-08-11T14:00:33.681Z,37.02
2022-08-11T14:02:19.143Z,37.25
2022-08-11T14:03:11.959Z,37.46
2022-08-11T14:04:30.491Z,37.47
2022-08-11T14:05:45.897Z,37.27
2022-08-11T14:06:53.436Z,37.20
2022-08-11T14:08:09.780Z,37.34
2022-08-11T14:09:37.605Z,37.18
2022-08-11T14:10:40.127Z,37.15
2022-08-11T14:12:21.552Z,36.82
2022-08-11T14:13:42.771Z,36.42
2022-08-11T14:14:57.647Z,35.96
2022-08-11T14:16:04.918Z,35.62
2022-08-11T14:17:09.079Z,35.32
2022-08-11T14:18:24.464Z,35.15
2022-08-11T14:19:28.390Z,35.13
2022-08-11T14:20:52.470Z,34.54
2022-08-11T14:22:08.556Z,34.33
2022-08-11T14:23:14.918Z,34.50
2022-08-11T14:24:18.371Z,34.53
2022-08-11T14:25:20.475Z,34.56
2022-08-11T14:26:28.065Z,34.61
2022-08-11T14:28:22.104Z,34.60
2022-08-11T14:29:06.165Z,34.38
2022-08-11T14:30:28.610Z,34.46
2022-08-11T14:31:32.982Z,34.40
2022-08-11T14:32:34.891Z,34.33
2022-08-11T14:34:00.236Z,34.22
2022-08-11T14:35:04.070Z,34.15
2022-08-11T14:36:08.871Z,34.25
2022-08-11T14:37:15.340Z,34.32
2022-08-11T14:38:17.811Z,34.36
2022-08-11T14:39:25.095Z,34.41
2022-08-11T14:40:45.786Z,34.44
2022-08-11T14:42:12.443Z,34.32
2022-08-11T14:44:13.246Z,34.11
2022-08-11T14:45:21.350Z,34.05
2022-08-11T14:46:43.615Z,34.05
2022-08-11T14:47:50.213Z,34.11
2022-08-11T14:48:53.162Z,33.95
2022-08-11T14:50:09.283Z,33.78
2022-08-11T14:51:13.718Z,33.53
2022-08-11T14:52:17.585Z,33.45
2022-08-11T14:53:22.556Z,33.36
2022-08-11T14:54:50.333Z,32.98
2022-08-11T14:56:12.616Z,32.83
2022-08-11T14:57:14.529Z,32.69
2022-08-11T14:58:18.526Z,32.49
2022-08-11T14:59:21.475Z,32.44
2022-08-11T15:00:24.076Z,32.31
2022-08-11T15:01:44.770Z,32.27
2022-08-11T15:03:07.292Z,32.05
2022-08-11T15:04:35.168Z,32.11
2022-08-11T15:05:31.854Z,32.07
2022-08-11T15:06:34.406Z,32.09
2022-08-11T15:07:37.685Z,32.03
2022-08-11T15:08:55.290Z,31.93
2022-08-11T15:10:13.522Z,31.74
2022-08-11T15:11:39.252Z,31.68
2022-08-11T15:12:44.589Z,31.53
2022-08-11T15:13:46.381Z,31.42
2022-08-11T15:15:08.969Z,31.41
2022-08-11T15:16:29.440Z,31.42
2022-08-11T15:17:43.455Z,31.32
2022-08-11T15:18:46.097Z,31.11
2022-08-11T15:20:08.342Z,31.02
2022-08-11T15:21:28.966Z,30.90
2022-08-11T15:22:49.416Z,30.93
2022-08-11T15:24:10.048Z,30.95
2022-08-11T15:25:12.111Z,30.93
2022-08-11T15:26:42.957Z,30.93
2022-08-11T15:28:07.387Z,30.92
2022-08-11T15:29:29.462Z,30.80
2022-08-11T15:30:50.494Z,30.78
2022-08-11T15:32:10.880Z,30.79
2022-08-11T15:33:35.147Z,30.72
2022-08-11T15:34:59.357Z,30.65
2022-08-11T15:36:26.464Z,30.53
2022-08-11T15:37:35.640Z,30.35
2022-08-11T15:38:44.078Z,30.25
2022-08-11T15:40:31.914Z,30.19
2022-08-11T15:42:05.156Z,30.11
2022-08-11T15:43:35.448Z,29.97
2022-08-11T15:45:03.346Z,29.96
2022-08-11T15:46:19.992Z,29.95
2022-08-11T15:47:28.099Z,29.91
2022-08-11T15:48:32.413Z,29.90
2022-08-11T15:50:10.894Z,29.91
2022-08-11T15:51:10.859Z,29.81
2022-08-11T15:52:19.708Z,29.96
2022-08-11T15:53:32.200Z,29.98
2022-08-11T15:54:35.540Z,29.91
2022-08-11T15:55:38.506Z,29.88
2022-08-11T15:56:44.412Z,29.88
2022-08-11T15:58:07.759Z,29.86
2022-08-11T15:59:43.076Z,29.84
2022-08-11T16:01:09.253Z,29.82
2022-08-11T16:02:36.121Z,29.76
2022-08-11T16:04:14.246Z,29.77
2022-08-11T16:05:44.897Z,29.76
2022-08-11T16:06:54.320Z,29.78
2022-08-11T16:07:58.599Z,29.79
2022-08-11T16:09:07.477Z,29.82
2022-08-11T16:10:23.512Z,29.87
2022-08-11T16:11:27.081Z,29.88
2022-08-11T16:12:32.110Z,29.80
2022-08-11T16:13:36.847Z,29.82
2022-08-11T16:15:01.132Z,29.91
2022-08-11T16:16:17.415Z,29.72
2022-08-11T16:17:21.338Z,29.41
2022-08-11T16:18:40.824Z,29.09
2022-08-11T16:19:44.371Z,28.71
2022-08-11T16:20:50.609Z,28.42
2022-08-11T16:21:53.503Z,28.16
2022-08-11T16:23:03.101Z,27.81
2022-08-11T16:26:30.314Z,27.61
2022-08-11T16:27:03.156Z,27.36
2022-08-11T16:27:09.131Z,27.16
2022-08-11T16:28:17.041Z,26.98
2022-08-11T16:29:21.800Z,26.67
2022-08-11T16:30:27.545Z,26.31
2022-08-11T16:31:31.358Z,25.96
2022-08-11T16:32:36.439Z,25.61
2022-08-11T16:33:48.606Z,25.37
2022-08-11T16:35:17.758Z,25.16
2022-08-11T16:36:40.363Z,24.77
2022-08-11T16:38:02.240Z,24.58